Weather at Al Al Airport [CLOSED]

Public forecast

Using degrees Celsius for public forecast. Weather courtesy of forecast.io.

Closest aviation weather report (METAR) to Al Al Airport

Report is more than 6 hours old.

Closest report is Haifa International Airport, 34.0 nm (63.0 km) W.

2024/05/30 15:50 (retrieved 7 hours ago)

LLHA 301550Z 31010KT 9999 SCT028 24/17 Q1013

Closest aviation forecast (TAF) to Al Al Airport

Closest forecast is Haifa International Airport, 34.0 nm (63.0 km) W.

2024/05/30 18:00 (retrieved 5 hours ago)

TAF LLHA 301706Z 3018/3118 32005KT 9999 SCT025 BECMG 3019/3021 VRB03KT FEW020 PROB30 3023/3105 15004KT BKN015 BECMG 3107/3109 30010KT CAVOK BECMG 3115/3117 34006KT TX25/3111Z TN18/3103Z